x

Sentry Shoal (46131) Wave Buoy

4:00 - Wed 20th Aug 2014 All times are PDT. -7 hours from GMT.

  • Sig Wave height 0.3ft
  • Peak Period 6s
  • Wind
    2mph, 4mph gusts
  • Sea Temp 65°f
  • Air Temp 65°f
  • Sea Pressure 1013.6mb
  • Sentry Shoal
  • Sentry Shoal

More Historic Weather Station data

Upgrade to MSW Pro to gain access to the past 30 days of data for over 8000 Wavebouys and Weather Stations around the globe.

Join Pro

Comparision Forecast

View Surf forecast
   
mer. 08/20 4:00 0.3ft 6s 2 4 mph 1013.6mb 65f 65f
3:00 0.3ft 3s 4 7 mph 1013.8mb 65f 64f
2:00 0.3ft 2s 4
mph
1013.9mb 64f 64f
1:00 0.3ft 3s 7 9 mph 1013.9mb 63f 63f
12:00 0.3ft 3s 4
mph
1013.8mb 63f 63f
11:00 0.3ft 2s 7 9 mph 1013.7mb 62f 62f
10:00 0.3ft 2s 4 7 mph 1013.6mb 62f 61f
9:00 0.7ft 2s 11
mph
1013.1mb 62f 60f
8:00 0.7ft 2s 9 13 mph 1012.7mb 62f 59f
7:00 0.7ft 2s 9 11 mph 1012.1mb 62f 59f
6:00 0.7ft 2s 11
mph
1011.5mb 62f 60f
5:00 0.7ft 3s 9 11 mph 1011mb 62f 60f
4:00 1ft 3s 11 13 mph 1010.5mb 61f 60f
3:00 1ft 3s 13 16 mph 1010.2mb 62f 60f
2:00 1.3ft 3s 18 20 mph 1009.8mb 62f 61f
1:00 1ft 3s 18 20 mph 1009.4mb 63f 62f
12:00 1ft 3s 18 22 mph 1009.1mb 63f 62f
mar. 08/19 11:00 1ft 3s 16 20 mph 1009.3mb 63f 63f
10:00 1.3ft 3s 18 20 mph 1008.9mb 63f 64f
9:00  -   -  22
mph
- - -
8:00 1.6ft 3s 22 25 mph 1008.2mb 64f 67f
7:00 1.3ft 3s 18 22 mph 1007.9mb 65f 69f
6:00 0.7ft 2s 16 18 mph 1008.1mb 66f 69f
5:00 0.3ft 2s 11
mph
1008.2mb 65f 69f
4:00 0.3ft 3s 4
mph
1008.6mb 65f 69f
3:00 0.7ft 3s 4 7 mph 1008.7mb 65f 69f
2:00 0.7ft 3s 7 9 mph 1008.9mb 64f 68f
1:00 1ft 3s 9 11 mph 1009.2mb 64f 67f
12:00 1ft 3s 9 11 mph 1009.4mb 64f 66f
11:00 1.3ft 3s 13 16 mph 1009.5mb 63f 66f
10:00 1.6ft 3s 16 20 mph 1009.5mb 63f 65f
9:00 1.6ft 3s 20 27 mph 1009.6mb 64f 64f
8:00 1.3ft 3s 20 22 mph 1009.6mb 64f 64f
7:00 1ft 3s 16 18 mph 1009.5mb 64f 64f
6:00 1ft 3s 18 22 mph 1009.3mb 64f 65f
5:00 1ft 3s 13 18 mph 1009.8mb 64f 65f
4:00 1.3ft 3s 13 16 mph 1009.9mb 65f 65f
3:00 1.6ft 3s 18 20 mph 1009.8mb 65f 65f
2:00 0.7ft 3s 20 22 mph 1009.8mb 65f 66f
1:00 1ft 4s 9 16 mph 1010.3mb 66f 67f
12:00 1.3ft 3s 20 25 mph 1010.1mb 66f 67f
lun. 08/18 11:00 1.3ft 3s 16 22 mph 1010.9mb 67f 69f
10:00 1.3ft 3s 18 20 mph 1011.1mb 66f 69f
9:00 1.3ft 3s 16 18 mph 1011.1mb 67f 69f
8:00 1ft 3s 16 20 mph 1011.2mb 67f 71f
7:00 1.3ft 3s 13 16 mph 1011.5mb 67f 71f
6:00 1ft 3s 13 18 mph 1012mb 67f 71f
5:00 0.3ft 5s 9 13 mph 1012.6mb 67f 71f
4:00 0.3ft 3s 4 7 mph 1013.2mb 68f 71f
3:00 0.3ft 2s 4 7 mph 1013.7mb 67f 70f
2:00 0.3ft 2s 4 7 mph 1014.3mb 68f 69f
1:00 0.3ft 3s 4
mph
1014.8mb 67f 68f
12:00 0.3ft 2s 2 4 mph 1015.6mb 66f 67f
11:00 0.7ft 2s 9 11 mph 1016.1mb 66f 65f
10:00 0.7ft 2s 9 11 mph 1016.6mb 66f 64f
9:00 1ft 3s 13 16 mph 1017.2mb 65f 63f
8:00 1ft 3s 13 16 mph 1017.1mb 65f 62f
7:00 1ft 3s 16 18 mph 1017.2mb 66f 63f
6:00 1.3ft 3s 13 16 mph 1017.3mb 66f 63f
5:00 1.3ft 3s 13 16 mph 1017.8mb 66f 63f
4:00 1ft 3s 16 18 mph 1017.8mb 66f 63f
3:00 1.3ft 3s 16
mph
1017.5mb 66f 64f
2:00 1.6ft 3s 18 22 mph 1017.3mb 66f 65f
1:00 1.3ft 3s 18 20 mph 1017.3mb 67f 66f
12:00 1.3ft 3s 13 18 mph 1017.3mb 67f 67f
dim. 08/17 11:00 1.3ft 3s 18 20 mph 1017.3mb 67f 68f
10:00 1ft 3s 16 18 mph 1017.6mb 67f 69f
9:00 0.7ft 2s 18 20 mph 1017.6mb 68f 70f
8:00 0.3ft 4s 9 11 mph 1017.6mb 69f 71f
7:00  -  3s 4 7 mph 1017.5mb 70f 72f
6:00  -  2s 4
mph
1017.9mb 71f 72f
5:00 0.3ft 2s 4
mph
1018.6mb 71f 71f
4:00 0.3ft 2s 4
mph
1019.3mb 70f 70f
3:00 0.3ft 3s 4 7 mph 1019.7mb 70f 69f
2:00 0.3ft 3s 4 7 mph 1019.9mb 69f 69f
1:00 0.3ft 2s 4
mph
1020.3mb 68f 68f
12:00 0.3ft 2s 7
mph
1020.7mb 67f 67f
11:00 0.7ft 2s 9 11 mph 1021mb 67f 66f
10:00 0.7ft 2s 11 13 mph 1020.9mb 67f 65f
9:00 0.7ft 2s 11 13 mph 1020.7mb 67f 65f
8:00 1ft 2s 11 13 mph 1020.5mb 67f 64f
7:00 0.7ft 3s 11 13 mph 1020.4mb 67f 64f
6:00 0.7ft 3s 11 13 mph 1020mb 67f 64f
5:00 0.7ft 3s 11 13 mph 1019.8mb 67f 65f
4:00 0.7ft 3s 11 13 mph 1019.6mb 66f 65f
3:00 1ft 3s 11 13 mph 1019.5mb 66f 66f
2:00 1ft 3s 16 18 mph 1019.2mb 66f 66f
1:00 0.7ft 3s 13 18 mph 1019.3mb 67f 67f